Time;durP1;ratioP1;P1;durP2;ratioP2;P2;SDS_P1;SDS_P2;PMS_P1;PMS_P2;Temp;Humidity;BMP_temperature;BMP_pressure;BME280_temperature;BME280_humidity;BME280_pressure;Samples;Min_cycle;Max_cycle;Signal;HPM_P1;HPM_P2
2022/08/03 00:00:55;;;;;;;15.58;10.68;;;;;;;17.90;72.27;100543.66;1644405;86;25592;-70
2022/08/03 00:03:22;;;;;;;16.48;11.88;;;;;;;17.83;72.19;100540.13;1645074;85;25424;-70
2022/08/03 00:05:48;;;;;;;18.45;11.97;;;;;;;17.82;72.57;100550.06;1651623;85;28209;-70
2022/08/03 00:08:14;;;;;;;14.43;10.85;;;;;;;17.76;72.43;100545.43;1636943;87;25430;-70
2022/08/03 00:10:40;;;;;;;16.85;11.50;;;;;;;17.71;72.71;100545.11;1636988;87;25406;-70
2022/08/03 00:13:07;;;;;;;14.03;10.98;;;;;;;17.68;72.72;100547.75;1636936;87;25663;-69
2022/08/03 00:15:33;;;;;;;15.15;11.88;;;;;;;17.64;72.67;100552.31;1637040;87;25614;-69
2022/08/03 00:17:59;;;;;;;15.60;11.93;;;;;;;17.59;72.99;100549.28;1698682;83;27503;-69
2022/08/03 00:20:26;;;;;;;14.28;11.83;;;;;;;17.53;73.06;100551.45;1686705;83;25551;-69
2022/08/03 00:22:53;;;;;;;15.58;12.23;;;;;;;17.47;73.23;100554.80;1682356;84;25632;-69
2022/08/03 00:25:19;;;;;;;15.38;11.97;;;;;;;17.41;73.37;100553.47;1682326;83;25697;-69
2022/08/03 00:27:47;;;;;;;12.98;11.48;;;;;;;17.36;73.73;100559.98;1682477;84;25447;-69
2022/08/03 00:30:14;;;;;;;12.60;11.35;;;;;;;17.31;73.73;100556.91;1672372;84;27680;-70
2022/08/03 00:32:40;;;;;;;13.70;11.53;;;;;;;17.31;73.89;100550.66;1682245;83;25567;-70
2022/08/03 00:35:08;;;;;;;20.32;11.70;;;;;;;17.30;74.26;100551.82;1682342;83;25611;-70
2022/08/03 00:37:34;;;;;;;14.65;12.68;;;;;;;17.28;73.98;100553.53;1682192;83;25468;-70
2022/08/03 00:40:00;;;;;;;13.22;11.85;;;;;;;17.28;74.24;100551.34;1691922;83;25569;-70
2022/08/03 00:42:27;;;;;;;15.90;11.45;;;;;;;17.25;74.34;100550.13;1710903;83;28156;-70
2022/08/03 00:44:53;;;;;;;16.90;11.95;;;;;;;17.23;74.54;100548.87;1710742;83;25542;-70
2022/08/03 00:47:19;;;;;;;16.07;12.23;;;;;;;17.21;74.76;100555.26;1710851;83;25582;-70
2022/08/03 00:49:45;;;;;;;13.62;12.05;;;;;;;17.14;74.66;100552.53;1710864;83;25660;-70
2022/08/03 00:52:15;;;;;;;14.78;12.63;;;;;;;17.10;74.61;100550.86;1710943;83;25606;-70
2022/08/03 00:54:41;;;;;;;14.93;13.20;;;;;;;17.06;74.65;100552.13;1710910;83;28149;-70
2022/08/03 00:57:10;;;;;;;13.30;11.75;;;;;;;;;;1713663;83;25570;-70
2022/08/03 00:59:38;;;;;;;16.60;12.07;;;;;;;17.03;74.90;100554.19;1716241;83;25602;-70
2022/08/03 01:02:05;;;;;;;12.13;10.85;;;;;;;17.02;74.83;100549.06;1715898;82;26150;-70
2022/08/03 01:04:31;;;;;;;14.13;11.43;;;;;;;16.99;74.60;100556.00;1715982;82;25619;-70
2022/08/03 01:07:06;;;;;;;14.58;11.57;;;;;;;16.97;74.75;100551.45;1715865;82;27623;-70
2022/08/03 01:09:56;;;;;;;12.45;11.18;;;;;;;16.94;74.60;100552.14;1715858;82;25648;-70
2022/08/03 01:12:33;;;;;;;12.98;11.05;;;;;;;16.91;74.69;100555.01;1715917;82;25541;-70
2022/08/03 01:15:11;;;;;;;12.58;10.82;;;;;;;16.89;74.78;100554.56;1715772;83;26145;-68
2022/08/03 01:17:58;;;;;;;13.20;10.88;;;;;;;16.85;74.86;100556.38;1716079;83;25619;-70
2022/08/03 01:20:32;;;;;;;15.10;11.12;;;;;;;16.81;74.92;100561.71;1716073;83;28303;-70
2022/08/03 01:23:36;;;;;;;12.90;10.90;;;;;;;16.78;75.19;100558.87;1715737;83;25415;-70
2022/08/03 01:26:28;;;;;;;11.78;10.60;;;;;;;16.76;75.44;100557.85;1716078;83;25639;-69
2022/08/03 01:29:15;;;;;;;14.43;11.68;;;;;;;16.74;75.42;100556.62;1716142;82;25471;-71
2022/08/03 01:31:49;;;;;;;14.75;11.48;;;;;;;16.72;75.48;100556.96;1684343;85;25484;-68
2022/08/03 01:34:18;;;;;;;12.95;11.03;;;;;;;16.71;75.74;100555.36;1683766;85;28729;-68
2022/08/03 01:36:52;;;;;;;12.37;11.10;;;;;;;16.70;75.91;100555.15;1684372;85;25773;-69
2022/08/03 01:39:20;;;;;;;12.15;10.85;;;;;;;16.70;75.87;100554.33;1664983;85;25431;-69
2022/08/03 01:41:51;;;;;;;12.40;11.12;;;;;;;16.69;75.91;100553.55;1684403;85;25745;-69
2022/08/03 01:44:19;;;;;;;13.18;11.20;;;;;;;16.69;76.09;100551.39;1684264;85;25718;-70
2022/08/03 01:46:48;;;;;;;12.60;11.33;;;;;;;16.69;75.94;100545.93;1684514;85;27709;-69
2022/08/03 01:49:17;;;;;;;13.03;11.57;;;;;;;16.68;76.34;100551.16;1684438;85;35143;-69
2022/08/03 01:51:47;;;;;;;13.90;11.73;;;;;;;16.67;76.29;100546.27;1684486;85;25633;-68
2022/08/03 01:54:14;;;;;;;17.35;10.90;;;;;;;16.64;76.38;100545.59;1684438;85;25618;-68
2022/08/03 01:56:43;;;;;;;13.43;11.50;;;;;;;16.62;76.52;100544.56;1685755;84;25422;-69
2022/08/03 01:59:11;;;;;;;16.53;11.00;;;;;;;16.61;76.45;100542.17;1674370;84;27683;-70
2022/08/03 02:01:39;;;;;;;13.60;11.68;;;;;;;16.60;76.55;100540.02;1657562;84;25911;-70
2022/08/03 02:04:08;;;;;;;13.95;11.57;;;;;;;16.59;76.64;100536.27;1673783;84;25727;-70
2022/08/03 02:06:37;;;;;;;16.23;12.85;;;;;;;16.58;76.58;100536.84;1689236;84;25503;-70
2022/08/03 02:09:05;;;;;;;16.77;12.10;;;;;;;16.58;76.95;100538.21;1703758;83;25645;-70
2022/08/03 02:11:35;;;;;;;12.18;10.98;;;;;;;16.58;77.11;100543.67;1711619;83;28157;-70
2022/08/03 02:14:04;;;;;;;12.47;11.18;;;;;;;16.57;77.13;100535.23;1701635;83;25668;-69
2022/08/03 02:16:33;;;;;;;14.18;11.38;;;;;;;16.57;77.23;100537.97;1701419;83;25537;-69
2022/08/03 02:19:03;;;;;;;12.23;10.95;;;;;;;16.56;77.01;100535.58;1711712;83;25475;-69
2022/08/03 02:21:34;;;;;;;14.90;10.93;;;;;;;16.55;76.92;100539.44;1711723;83;25388;-70
2022/08/03 02:24:03;;;;;;;12.58;11.28;;;;;;;16.54;76.76;100537.28;1711640;83;27529;-69
2022/08/03 02:26:31;;;;;;;11.88;10.53;;;;;;;16.53;76.86;100533.53;1712792;82;25445;-68
2022/08/03 02:29:02;;;;;;;13.58;11.80;;;;;;;16.52;76.83;100535.48;1711677;83;25465;-71
2022/08/03 02:31:32;;;;;;;13.32;11.93;;;;;;;16.51;76.84;100529.78;1711632;83;26342;-71
2022/08/03 02:34:03;;;;;;;13.53;11.73;;;;;;;16.50;77.23;100527.39;1711509;83;25568;-69
2022/08/03 02:36:34;;;;;;;12.68;11.48;;;;;;;16.47;77.18;100530.25;1711651;83;27477;-69
2022/08/03 02:39:02;;;;;;;14.58;12.05;;;;;;;16.44;76.93;100528.98;1693735;82;25554;-69
2022/08/03 02:41:34;;;;;;;13.05;11.50;;;;;;;16.44;77.11;100533.66;1710171;83;25761;-69
2022/08/03 02:44:05;;;;;;;13.30;10.78;;;;;;;16.41;76.90;100530.24;1678679;85;25571;-69
2022/08/03 02:46:37;;;;;;;13.45;11.95;;;;;;;16.39;76.90;100527.06;1640331;85;25421;-68
2022/08/03 02:49:04;;;;;;;16.00;12.98;;;;;;;16.36;76.93;100532.66;1637102;87;28315;-68
2022/08/03 02:51:34;;;;;;;13.93;12.43;;;;;;;16.32;76.97;100542.65;1641587;86;25510;-68
2022/08/03 02:54:03;;;;;;;16.65;12.00;;;;;;;16.30;77.09;100544.93;1650667;86;25666;-68
2022/08/03 02:56:30;;;;;;;13.20;11.80;;;;;;;16.28;77.00;100549.94;1706459;83;25640;-69
2022/08/03 02:58:58;;;;;;;14.70;12.45;;;;;;;16.23;77.13;100541.41;1716214;83;25456;-71
2022/08/03 03:01:27;;;;;;;13.60;11.93;;;;;;;16.26;77.36;100539.94;1715959;83;27650;-68
2022/08/03 03:03:56;;;;;;;13.58;12.18;;;;;;;16.24;77.42;100538.91;1716052;82;33178;-70
2022/08/03 03:06:25;;;;;;;14.47;12.37;;;;;;;16.22;77.56;100543.89;1716297;82;25629;-69
2022/08/03 03:08:52;;;;;;;15.50;13.15;;;;;;;16.22;77.85;100544.47;1716234;82;25636;-69
2022/08/03 03:11:22;;;;;;;16.20;12.63;;;;;;;16.20;77.90;100543.44;1715938;83;25692;-69
2022/08/03 03:13:50;;;;;;;15.85;12.45;;;;;;;16.20;78.14;100550.27;1715999;82;27449;-69
2022/08/03 03:16:18;;;;;;;15.10;12.35;;;;;;;16.20;78.21;100548.11;1716008;82;26271;-68
2022/08/03 03:18:47;;;;;;;14.47;12.78;;;;;;;16.20;78.18;100546.75;1716437;82;25460;-70
2022/08/03 03:21:17;;;;;;;16.32;12.70;;;;;;;16.21;78.37;100549.14;1716050;83;26122;-69
2022/08/03 03:23:45;;;;;;;13.75;12.35;;;;;;;16.21;78.58;100553.81;1716206;82;25554;-69
2022/08/03 03:26:14;;;;;;;13.55;12.25;;;;;;;16.24;78.73;100559.37;1716139;82;28280;-69
2022/08/03 03:28:41;;;;;;;16.95;12.33;;;;;;;16.28;78.90;100562.22;1716146;82;25395;-69
2022/08/03 03:31:08;;;;;;;14.38;12.85;;;;;;;16.30;79.03;100564.61;1715979;82;25621;-69
2022/08/03 03:33:36;;;;;;;16.55;13.00;;;;;;;16.34;79.14;100564.14;1716040;82;26020;-69
2022/08/03 03:36:05;;;;;;;15.15;13.05;;;;;;;16.39;79.17;100561.19;1716041;83;25603;-69
2022/08/03 03:38:32;;;;;;;15.85;12.98;;;;;;;16.42;79.38;100565.39;1703955;82;27462;-69
2022/08/03 03:40:59;;;;;;;15.68;13.35;;;;;;;16.45;79.42;100566.66;1684213;83;25704;-69
2022/08/03 03:43:26;;;;;;;15.43;13.35;;;;;;;16.50;79.64;100561.52;1715955;83;25598;-69
2022/08/03 03:45:54;;;;;;;15.90;13.35;;;;;;;16.56;79.86;100562.89;1715609;83;25516;-69
2022/08/03 03:48:20;;;;;;;14.50;12.80;;;;;;;16.61;79.87;100557.98;1715963;83;25477;-69
2022/08/03 03:50:49;;;;;;;17.07;12.65;;;;;;;16.67;79.87;100564.02;1716047;82;27550;-70
2022/08/03 03:53:15;;;;;;;18.55;12.82;;;;;;;16.70;79.71;100566.07;1715797;82;27371;-69
2022/08/03 03:55:42;;;;;;;14.38;12.88;;;;;;;16.75;79.65;100566.39;1715745;82;25463;-69
2022/08/03 03:58:08;;;;;;;14.15;12.75;;;;;;;16.77;79.70;100569.02;1715868;83;25668;-71
2022/08/03 04:00:35;;;;;;;16.07;13.72;;;;;;;16.82;79.74;100566.59;1716114;82;25615;-71
2022/08/03 04:03:01;;;;;;;15.55;13.53;;;;;;;16.87;80.00;100569.70;1715818;82;26924;-71
2022/08/03 04:11:23;;;;;;;17.90;12.10;;;;;;;17.04;80.60;100572.73;1716194;83;25760;-70
2022/08/03 04:14:01;;;;;;;;;;;;;;;17.12;80.73;100582.16;1718471;83;25614;-69
2022/08/03 04:16:35;;;;;;;13.78;12.15;;;;;;;17.18;80.96;100581.36;1715787;83;27531;-69
2022/08/03 04:19:09;;;;;;;14.15;12.73;;;;;;;17.26;80.74;100585.08;1716061;82;25361;-69
2022/08/03 04:21:40;;;;;;;15.75;14.15;;;;;;;17.33;80.65;100585.27;1715980;83;25454;-69
2022/08/03 04:24:09;;;;;;;17.23;13.50;;;;;;;17.39;80.88;100588.58;1715921;82;25617;-68
2022/08/03 04:26:39;;;;;;;16.87;13.38;;;;;;;17.46;80.94;100590.92;1716089;82;25632;-69
2022/08/03 04:29:08;;;;;;;15.98;12.45;;;;;;;17.53;80.91;100591.69;1715841;83;27519;-71
2022/08/03 04:31:37;;;;;;;13.70;12.35;;;;;;;17.60;81.02;100595.20;1716046;83;25717;-69
2022/08/03 04:34:04;;;;;;;14.95;13.30;;;;;;;17.66;80.95;100595.97;1716077;83;25565;-70
2022/08/03 04:36:35;;;;;;;15.28;13.28;;;;;;;17.72;80.85;100595.13;1715947;83;26261;-69
2022/08/03 04:39:16;;;;;;;15.70;13.38;;;;;;;17.81;80.93;100597.16;1663615;84;25628;-69
2022/08/03 04:41:43;;;;;;;15.08;12.95;;;;;;;17.89;81.12;100606.36;1647860;86;27714;-69
2022/08/03 04:44:12;;;;;;;14.15;12.70;;;;;;;17.99;81.41;100601.73;1665894;86;25650;-69
2022/08/03 04:46:40;;;;;;;16.17;12.78;;;;;;;18.08;81.41;100601.01;1658821;86;25580;-69
2022/08/03 04:49:06;;;;;;;16.00;12.58;;;;;;;18.21;81.55;100609.13;1614841;87;25523;-70
2022/08/03 04:51:36;;;;;;;15.15;13.40;;;;;;;18.33;82.03;100608.25;1641989;86;25416;-70
2022/08/03 04:54:02;;;;;;;15.20;12.90;;;;;;;18.45;81.76;100609.52;1665827;86;28109;-70
2022/08/03 04:56:28;;;;;;;15.38;12.75;;;;;;;18.59;81.48;100608.50;1643489;86;25440;-70
2022/08/03 04:58:54;;;;;;;14.43;12.47;;;;;;;18.70;81.22;100606.59;1636072;87;25496;-70
2022/08/03 05:01:21;;;;;;;15.50;12.37;;;;;;;18.78;80.79;100607.76;1702773;83;26289;-70
2022/08/03 05:03:48;;;;;;;15.32;12.47;;;;;;;18.90;81.12;100608.25;1710971;83;25542;-70
2022/08/03 05:06:14;;;;;;;11.88;10.72;;;;;;;19.03;80.85;100606.16;1710847;83;28172;-70
2022/08/03 05:08:40;;;;;;;13.28;10.98;;;;;;;19.09;79.89;100612.96;1710899;83;25625;-70
2022/08/03 05:11:06;;;;;;;11.88;10.60;;;;;;;19.18;79.79;100608.63;1711051;83;25532;-70
2022/08/03 05:13:32;;;;;;;12.20;9.80;;;;;;;19.23;79.16;100606.98;1711051;83;25670;-71
2022/08/03 05:15:58;;;;;;;10.90;9.83;;;;;;;19.31;79.01;100610.09;1711110;83;25421;-71
2022/08/03 05:18:24;;;;;;;10.93;9.88;;;;;;;19.44;79.07;100609.94;1711047;83;27484;-70
2022/08/03 05:20:50;;;;;;;12.35;9.98;;;;;;;19.55;78.66;100613.11;1711096;83;25209;-68
2022/08/03 05:23:16;;;;;;;10.82;9.73;;;;;;;19.68;78.19;100619.80;1711145;83;25695;-69
2022/08/03 05:25:43;;;;;;;10.80;9.70;;;;;;;19.75;77.61;100618.03;1711036;83;25600;-69
2022/08/03 05:28:13;;;;;;;9.93;8.93;;;;;;;19.83;77.35;100620.31;1711288;83;25663;-70
2022/08/03 05:30:39;;;;;;;11.10;9.30;;;;;;;19.97;77.95;100619.78;1690056;83;28493;-70
2022/08/03 05:33:05;;;;;;;12.58;10.03;;;;;;;20.13;77.82;100617.72;1710995;83;25468;-70
2022/08/03 05:35:33;;;;;;;14.38;9.90;;;;;;;20.25;77.00;100619.49;1711031;83;25672;-70
2022/08/03 05:38:01;;;;;;;10.30;9.30;;;;;;;20.40;76.64;100622.46;1705164;83;25907;-70
2022/08/03 05:40:28;;;;;;;10.60;9.50;;;;;;;20.52;75.99;100623.66;1681709;84;25581;-70
2022/08/03 05:42:54;;;;;;;10.08;8.95;;;;;;;20.64;75.61;100624.85;1705870;83;27546;-70
2022/08/03 05:45:20;;;;;;;10.88;9.10;;;;;;;20.75;75.01;100616.76;1710939;83;25604;-70
2022/08/03 05:47:46;;;;;;;10.08;8.55;;;;;;;20.87;74.89;100619.31;1710959;83;25400;-70
2022/08/03 05:50:13;;;;;;;12.50;9.08;;;;;;;21.01;74.65;100623.40;1710922;83;25563;-70
2022/08/03 05:52:41;;;;;;;9.15;8.13;;;;;;;21.16;74.08;100625.77;1711092;83;25674;-70
2022/08/03 05:55:11;;;;;;;9.58;8.58;;;;;;;21.24;73.73;100625.48;1711071;83;27493;-70
2022/08/03 05:57:39;;;;;;;;;;;;;;;21.35;73.77;100634.45;1713569;83;25444;-70
2022/08/03 06:00:09;;;;;;;13.18;9.08;;;;;;;21.50;73.43;100626.60;1713474;83;25537;-70
2022/08/03 06:02:38;;;;;;;10.95;8.90;;;;;;;21.59;72.60;100632.63;1713460;83;25655;-70
2022/08/03 06:05:06;;;;;;;10.48;9.28;;;;;;;21.68;71.93;100631.54;1713336;82;25578;-68
2022/08/03 06:07:32;;;;;;;11.25;9.53;;;;;;;21.72;71.53;100637.86;1713314;83;27442;-68
2022/08/03 06:10:01;;;;;;;9.75;8.75;;;;;;;21.77;71.44;100639.69;1713194;83;25906;-68
2022/08/03 06:12:28;;;;;;;11.63;10.27;;;;;;;21.84;71.55;100634.84;1713531;83;25562;-69
2022/08/03 06:14:55;;;;;;;11.75;10.60;;;;;;;21.91;71.30;100638.25;1713270;83;25390;-69
2022/08/03 06:17:21;;;;;;;12.13;10.93;;;;;;;21.95;70.43;100645.98;1713288;82;25616;-69
2022/08/03 06:19:47;;;;;;;13.08;11.05;;;;;;;21.93;70.12;100649.11;1713283;82;27484;-69
2022/08/03 06:22:13;;;;;;;13.72;11.53;;;;;;;21.92;69.89;100655.78;1713214;82;25863;-69
2022/08/03 06:24:39;;;;;;;15.20;13.80;;;;;;;21.93;69.96;100649.11;1713290;83;25616;-69
2022/08/03 06:27:06;;;;;;;16.97;12.98;;;;;;;21.96;69.54;100649.73;1713258;83;25558;-70
2022/08/03 06:29:32;;;;;;;16.82;13.45;;;;;;;21.97;69.14;100645.80;1713757;83;25581;-71
2022/08/03 06:31:58;;;;;;;13.93;12.53;;;;;;;21.95;68.91;100641.27;1713394;83;27418;-70
2022/08/03 06:34:24;;;;;;;14.20;12.55;;;;;;;22.02;69.57;100650.18;1713466;82;25928;-70
2022/08/03 06:36:50;;;;;;;15.45;13.55;;;;;;;22.15;70.05;100649.30;1713440;82;25387;-70
2022/08/03 06:39:17;;;;;;;15.15;13.72;;;;;;;22.28;69.35;100645.72;1693058;82;25725;-67
2022/08/03 06:41:44;;;;;;;16.27;13.80;;;;;;;22.35;69.05;100649.31;1703458;83;25541;-68
2022/08/03 06:44:11;;;;;;;14.55;13.15;;;;;;;22.43;69.04;100651.56;1713371;82;28317;-69
2022/08/03 06:46:37;;;;;;;15.03;13.43;;;;;;;22.52;68.94;100650.63;1713210;82;25451;-68
2022/08/03 06:49:03;;;;;;;16.75;14.90;;;;;;;22.57;68.19;100646.73;1713329;82;25602;-68
2022/08/03 06:51:30;;;;;;;15.25;13.65;;;;;;;22.62;67.98;100651.11;1713219;83;25609;-68
2022/08/03 06:53:56;;;;;;;14.98;13.38;;;;;;;22.61;67.98;100644.82;1713256;83;25452;-67
2022/08/03 06:56:22;;;;;;;14.80;13.08;;;;;;;22.64;68.15;100646.78;1713238;82;27709;-67
2022/08/03 06:58:48;;;;;;;16.93;13.65;;;;;;;22.72;68.29;100651.19;1713243;82;25649;-68
2022/08/03 07:01:15;;;;;;;18.02;15.63;;;;;;;22.77;67.85;100650.64;1683881;83;25437;-68
2022/08/03 07:03:41;;;;;;;15.70;14.13;;;;;;;22.80;67.57;100649.84;1712447;83;25567;-68
2022/08/03 07:06:07;;;;;;;15.70;13.18;;;;;;;22.83;67.84;100651.27;1713272;83;25421;-69
2022/08/03 07:08:34;;;;;;;16.32;14.70;;;;;;;22.93;67.93;100656.63;1713290;82;28184;-69
2022/08/03 07:11:01;;;;;;;15.70;13.13;;;;;;;22.99;67.79;100655.70;1710665;83;25594;-72
2022/08/03 07:13:27;;;;;;;15.10;13.68;;;;;;;23.04;67.75;100659.48;1691544;83;25769;-69
2022/08/03 07:15:53;;;;;;;15.15;13.70;;;;;;;23.08;67.72;100661.68;1712986;83;25733;-68
2022/08/03 07:18:19;;;;;;;17.60;13.72;;;;;;;23.14;67.67;100661.53;1703232;83;25562;-70
2022/08/03 07:20:45;;;;;;;17.02;14.95;;;;;;;23.17;67.46;100663.49;1700203;83;27505;-72
2022/08/03 07:23:11;;;;;;;16.23;13.93;;;;;;;23.18;67.31;100665.09;1680380;83;25871;-72
2022/08/03 07:25:38;;;;;;;18.05;16.17;;;;;;;23.23;67.43;100661.17;1681154;83;25619;-72
2022/08/03 07:28:04;;;;;;;19.67;17.77;;;;;;;23.29;67.38;100665.13;1682204;83;25647;-75
2022/08/03 07:30:31;;;;;;;19.27;16.50;;;;;;;23.32;67.22;100660.22;1683474;83;25566;-71
2022/08/03 07:32:57;;;;;;;21.00;17.12;;;;;;;23.36;67.21;100666.56;1680299;83;27473;-69
2022/08/03 07:35:25;;;;;;;18.48;16.60;;;;;;;23.41;67.30;100667.58;1680427;83;25717;-72
2022/08/03 07:37:52;;;;;;;20.23;16.75;;;;;;;23.48;67.50;100660.70;1680396;83;25554;-73
2022/08/03 07:40:19;;;;;;;20.82;17.75;;;;;;;23.55;67.16;100659.12;1680166;84;26280;-72
2022/08/03 07:42:45;;;;;;;20.55;18.40;;;;;;;23.61;66.93;100662.50;1679989;83;25639;-72
2022/08/03 07:45:11;;;;;;;20.32;18.10;;;;;;;23.68;66.48;100660.36;1675413;84;28071;-74
2022/08/03 07:47:37;;;;;;;20.25;18.15;;;;;;;23.71;66.28;100662.34;1679440;83;25640;-73
2022/08/03 07:50:07;;;;;;;19.20;17.45;;;;;;;23.77;66.05;100660.80;1674115;84;25663;-73
2022/08/03 07:52:48;;;;;;;;;;;;;;;23.82;66.11;100663.20;1688453;83;25570;-73
2022/08/03 07:55:19;;;;;;;19.35;17.55;;;;;;;23.91;65.92;100662.05;1682373;83;25612;-71
2022/08/03 07:57:47;;;;;;;18.45;16.57;;;;;;;23.95;65.65;100664.21;1681618;83;27447;-72
2022/08/03 08:00:17;;;;;;;18.35;16.07;;;;;;;23.95;65.24;100664.99;1682110;83;25725;-74
2022/08/03 08:02:45;;;;;;;20.90;16.70;;;;;;;23.98;65.30;100665.59;1676751;83;25684;-72
2022/08/03 08:05:12;;;;;;;18.02;16.30;;;;;;;24.01;65.37;100668.97;1682139;83;26255;-73
2022/08/03 08:07:41;;;;;;;23.77;15.75;;;;;;;24.06;65.12;100658.13;1684724;83;25742;-73
2022/08/03 08:10:09;;;;;;;17.87;16.20;;;;;;;24.17;65.56;100666.42;1686144;82;27455;-73
2022/08/03 08:12:37;;;;;;;17.92;15.88;;;;;;;24.42;65.94;100666.44;1651390;82;25440;-74
2022/08/03 08:15:05;;;;;;;19.53;15.83;;;;;;;24.69;65.89;100668.81;1645249;85;25468;-72
2022/08/03 08:17:48;;;;;;;16.87;15.20;;;;;;;25.04;65.10;100662.43;1640623;85;25761;-68
2022/08/03 08:20:21;;;;;;;17.82;14.43;;;;;;;25.39;64.99;100673.23;1650796;85;25832;-69
2022/08/03 08:22:47;;;;;;;16.73;14.28;;;;;;;25.84;65.10;100665.09;1658773;85;27455;-66
2022/08/03 08:25:13;;;;;;;18.92;14.78;;;;;;;26.22;63.98;100667.24;1657257;85;25805;-66
2022/08/03 08:27:49;;;;;;;14.43;12.93;;;;;;;26.58;63.30;100674.70;1659147;85;25676;-67
2022/08/03 08:30:19;;;;;;;14.10;12.70;;;;;;;26.78;61.67;100673.55;1665231;85;25769;-68
2022/08/03 08:32:46;;;;;;;17.77;12.40;;;;;;;26.92;60.52;100678.17;1656331;85;25713;-74
2022/08/03 08:35:13;;;;;;;16.10;14.23;;;;;;;27.10;60.17;100673.80;1656706;85;28291;-67
2022/08/03 08:37:40;;;;;;;13.83;12.33;;;;;;;27.40;60.25;100669.53;1659703;85;25752;-67
2022/08/03 08:40:09;;;;;;;14.58;12.37;;;;;;;27.93;60.28;100684.72;1654952;85;25705;-67
2022/08/03 08:42:39;;;;;;;15.13;12.58;;;;;;;28.47;59.33;100669.98;1653877;85;25664;-68
2022/08/03 08:45:08;;;;;;;13.00;11.30;;;;;;;29.05;58.24;100676.72;1654282;85;25590;-72
2022/08/03 08:47:40;;;;;;;17.82;12.20;;;;;;;29.47;56.95;100672.73;1654359;86;27367;-67
2022/08/03 08:50:09;;;;;;;12.55;10.43;;;;;;;29.80;56.16;100673.65;1604058;86;26561;-67
2022/08/03 08:52:40;;;;;;;10.68;9.55;;;;;;;30.15;54.56;100677.62;1654239;85;25633;-67
2022/08/03 08:55:09;;;;;;;10.70;8.45;;;;;;;30.60;53.80;100676.73;1654869;85;25431;-67
2022/08/03 08:57:44;;;;;;;13.00;10.28;;;;;;;31.06;53.11;100675.52;1654319;85;25666;-68
2022/08/03 09:00:15;;;;;;;14.23;9.98;;;;;;;31.43;51.64;100680.86;1626614;85;27990;-70
2022/08/03 09:02:43;;;;;;;9.78;8.78;;;;;;;31.82;50.22;100680.32;1619473;88;25820;-70
2022/08/03 09:05:18;;;;;;;10.00;8.43;;;;;;;32.06;49.11;100679.39;1634234;87;25599;-70
2022/08/03 09:07:46;;;;;;;11.65;9.20;;;;;;;32.44;48.84;100674.97;1634206;87;26078;-68
2022/08/03 09:10:18;;;;;;;10.18;7.53;;;;;;;32.81;47.99;100676.73;1627852;87;30993;-69
2022/08/03 09:12:48;;;;;;;9.30;7.33;;;;;;;33.04;46.59;100670.70;1646635;87;27911;-70
2022/08/03 09:15:31;;;;;;;10.60;7.58;;;;;;;33.02;45.50;100667.58;1622847;87;25820;-69
2022/08/03 09:18:01;;;;;;;9.00;6.70;;;;;;;33.01;45.29;100673.00;1611319;87;25611;-70
2022/08/03 09:20:31;;;;;;;7.20;6.10;;;;;;;33.20;44.42;100670.36;1623624;87;26413;-70
2022/08/03 09:23:01;;;;;;;8.18;6.08;;;;;;;33.38;44.43;100670.48;1646328;87;25737;-71
2022/08/03 09:25:32;;;;;;;5.90;5.28;;;;;;;33.91;43.75;100662.64;1644914;87;28866;-67
2022/08/03 09:28:14;;;;;;;6.72;5.92;;;;;;;33.91;43.75;100662.64;1642900;86;25837;-70
2022/08/03 09:30:44;;;;;;;7.47;6.70;;;;;;;34.26;42.43;100664.47;1614015;87;25741;-66
2022/08/03 09:33:15;;;;;;;9.45;6.42;;;;;;;34.69;41.03;100684.50;1645947;87;25717;-71
2022/08/03 09:35:46;;;;;;;6.67;6.12;;;;;;;34.57;39.90;100665.78;1641391;87;25721;-72
2022/08/03 09:38:26;;;;;;;7.30;6.28;;;;;;;34.52;38.97;100662.95;1610456;87;27427;-68
2022/08/03 09:40:54;;;;;;;7.08;5.03;;;;;;;34.52;39.64;100653.77;1614009;88;25833;-69
2022/08/03 09:43:20;;;;;;;7.05;5.35;;;;;;;34.78;40.21;100657.83;1606302;87;25502;-70
2022/08/03 09:45:47;;;;;;;7.50;5.25;;;;;;;35.12;39.31;100653.75;1632048;87;27556;-69
2022/08/03 09:48:29;;;;;;;7.62;6.17;;;;;;;35.32;39.15;100657.48;1635432;87;25705;-73
2022/08/03 09:50:58;;;;;;;6.58;5.47;;;;;;;35.30;37.76;100652.33;1633066;87;28039;-70
2022/08/03 09:53:25;;;;;;;7.95;6.37;;;;;;;34.91;37.10;100654.88;1612901;86;25851;-70
2022/08/03 09:55:59;;;;;;;5.92;5.37;;;;;;;34.49;37.07;100654.05;1629866;87;25741;-70
2022/08/03 09:58:28;;;;;;;6.78;5.85;;;;;;;34.06;36.95;100653.03;1624385;86;25961;-73
2022/08/03 10:01:05;;;;;;;7.08;5.80;;;;;;;33.64;36.75;100649.27;1672806;84;25763;-71
2022/08/03 10:03:38;;;;;;;6.75;6.00;;;;;;;33.24;36.91;100654.22;1652300;85;27342;-71
2022/08/03 10:06:24;;;;;;;9.35;6.25;;;;;;;32.86;37.20;100646.75;1652466;85;25872;-68
2022/08/03 10:09:07;;;;;;;7.42;5.40;;;;;;;32.64;38.19;100643.33;1651105;85;25427;-68
2022/08/03 10:11:34;;;;;;;7.45;5.58;;;;;;;32.99;39.16;100660.70;1647594;85;25730;-72
2022/08/03 10:14:04;;;;;;;6.90;6.30;;;;;;;33.40;39.09;100644.80;1639357;85;25729;-68
2022/08/03 10:51:47;;;;;;;7.87;4.87;;;;;;;36.66;33.50;100634.27;1799192;77;25597;-64
2022/08/03 10:57:52;;;;;;;5.45;4.45;;;;;;;36.30;34.72;100634.69;1706352;83;27552;-66
2022/08/03 11:00:23;;;;;;;7.15;5.12;;;;;;;36.18;34.64;100640.68;1691639;83;25886;-68
2022/08/03 11:03:05;;;;;;;5.87;5.35;;;;;;;36.19;34.33;100637.26;1699382;83;25757;-69
2022/08/03 11:05:39;;;;;;;7.15;5.10;;;;;;;36.25;34.12;100636.76;1709404;82;26207;-69
2022/08/03 11:08:33;;;;;;;5.17;4.33;;;;;;;36.33;33.92;100635.78;1714019;83;25777;-68
2022/08/03 11:11:19;;;;;;;8.73;5.08;;;;;;;36.48;33.45;100635.19;1695442;83;27579;-68
2022/08/03 11:14:06;;;;;;;7.45;4.50;;;;;;;36.61;33.08;100633.53;1722011;82;25727;-67
2022/08/03 11:16:37;;;;;;;5.12;4.62;;;;;;;36.55;32.64;100632.63;1714979;82;25787;-67
2022/08/03 11:19:09;;;;;;;6.22;4.87;;;;;;;36.27;32.50;100635.03;1725438;82;26176;-68
2022/08/03 11:21:52;;;;;;;9.05;4.92;;;;;;;35.77;32.21;100626.23;1699626;83;25656;-67
2022/08/03 11:27:17;;;;;;;5.97;4.80;;;;;;;34.91;33.27;100628.18;1714773;82;25744;-68
2022/08/03 11:30:08;;;;;;;4.50;4.10;;;;;;;34.71;33.75;100618.83;1727038;82;25486;-68
2022/08/03 11:32:42;;;;;;;5.55;5.10;;;;;;;34.62;34.53;100625.84;1731183;81;26095;-67
2022/08/03 11:35:22;;;;;;;4.87;4.47;;;;;;;34.76;34.72;100623.05;1724227;82;25704;-69
2022/08/03 11:38:02;;;;;;;5.45;4.90;;;;;;;35.06;34.42;100614.87;1709611;82;27613;-66
2022/08/03 11:40:48;;;;;;;6.35;5.60;;;;;;;35.28;34.21;100613.28;1719656;81;25850;-67
2022/08/03 11:43:40;;;;;;;8.05;5.40;;;;;;;35.58;33.23;100610.04;1721589;83;25390;-67
2022/08/03 11:46:21;;;;;;;6.55;5.22;;;;;;;35.89;32.93;100613.19;1721818;83;25672;-67
2022/08/03 11:48:43;;;;;;;5.30;4.85;;;;;;;36.13;32.12;100614.59;1721072;83;25711;-67
2022/08/03 11:51:24;;;;;;;6.67;5.22;;;;;;;36.22;32.18;100606.77;1724216;83;28227;-68
2022/08/03 11:53:57;;;;;;;12.20;4.97;;;;;;;36.46;31.72;100607.50;1692511;81;25857;-66
2022/08/03 11:56:25;;;;;;;6.33;5.50;;;;;;;36.50;32.07;100612.17;1668832;85;25715;-66
2022/08/03 11:58:55;;;;;;;7.10;4.92;;;;;;;36.51;31.65;100609.49;1682745;85;25846;-69
2022/08/03 12:01:24;;;;;;;6.83;5.12;;;;;;;36.53;31.36;100603.54;1652878;85;25947;-69
2022/08/03 12:03:51;;;;;;;6.35;5.05;;;;;;;36.50;30.62;100600.27;1649046;86;27599;-68
2022/08/03 12:06:18;;;;;;;6.10;5.35;;;;;;;36.54;30.67;100607.13;1651738;86;25823;-67
2022/08/03 12:08:46;;;;;;;5.70;4.90;;;;;;;36.49;30.33;100595.12;1647200;84;25678;-69
2022/08/03 12:11:15;;;;;;;8.25;5.25;;;;;;;36.51;31.02;100612.30;1692324;84;25656;-68
2022/08/03 12:13:48;;;;;;;6.25;5.20;;;;;;;36.61;30.17;100605.36;1699309;83;26335;-67